createdAt,value
2017-12-28T00:00:04.963Z,979.97
2017-12-28T00:01:07.503Z,979.98
2017-12-28T00:02:04.798Z,979.98
2017-12-28T00:03:05.251Z,980
2017-12-28T00:04:05.360Z,979.97
2017-12-28T00:05:04.646Z,979.95
2017-12-28T00:06:04.691Z,979.95
2017-12-28T00:07:05.224Z,979.96
2017-12-28T00:08:05.443Z,979.96
2017-12-28T00:09:05.669Z,979.95
2017-12-28T00:10:05.779Z,979.97
2017-12-28T00:11:06.002Z,980
2017-12-28T00:12:05.184Z,980.01
2017-12-28T00:13:05.554Z,980
2017-12-28T00:14:06.004Z,980.01
2017-12-28T00:15:06.781Z,979.93
2017-12-28T00:16:05.720Z,979.95
2017-12-28T00:17:06.014Z,979.96
2017-12-28T00:18:07.430Z,979.96
2017-12-28T00:19:05.627Z,979.93
2017-12-28T00:20:05.763Z,979.97
2017-12-28T00:21:05.474Z,979.97
2017-12-28T00:22:05.154Z,980.03
2017-12-28T00:23:05.498Z,980.04
2017-12-28T00:24:05.780Z,980.07
2017-12-28T00:25:05.834Z,980.09
2017-12-28T00:26:06.019Z,980.09
2017-12-28T00:27:05.846Z,980.09
2017-12-28T00:28:06.002Z,980.09
2017-12-28T00:29:06.054Z,980.12
2017-12-28T00:30:05.712Z,980.13
2017-12-28T00:31:05.589Z,980.13
2017-12-28T00:32:05.723Z,980.09
2017-12-28T00:33:05.330Z,980.11
2017-12-28T00:34:05.366Z,980.07
2017-12-28T00:35:05.205Z,980.12
2017-12-28T00:36:05.111Z,980.13
2017-12-28T00:37:06.004Z,980.17
2017-12-28T00:38:05.862Z,980.23
2017-12-28T00:39:05.687Z,980.19
2017-12-28T00:40:05.662Z,980.23
2017-12-28T00:41:05.515Z,980.26
2017-12-28T00:42:05.409Z,980.27
2017-12-28T00:43:05.249Z,980.36
2017-12-28T00:44:05.461Z,980.35
2017-12-28T00:45:05.391Z,980.34
2017-12-28T00:46:05.712Z,980.35
2017-12-28T00:47:05.767Z,980.34
2017-12-28T00:48:05.397Z,980.32
2017-12-28T00:49:05.417Z,980.36
2017-12-28T00:50:05.740Z,980.37
2017-12-28T00:51:05.627Z,980.39
2017-12-28T00:52:06.029Z,980.41
2017-12-28T00:53:05.231Z,980.4
2017-12-28T00:54:05.298Z,980.41
2017-12-28T00:55:05.590Z,980.4
2017-12-28T00:56:05.713Z,980.36
2017-12-28T00:57:06.005Z,980.4
2017-12-28T00:58:06.042Z,980.41
2017-12-28T00:59:05.232Z,980.44
2017-12-28T01:00:05.721Z,980.4
2017-12-28T01:01:05.988Z,980.43
2017-12-28T01:02:06.039Z,980.47
2017-12-28T01:03:05.656Z,980.43
2017-12-28T01:04:07.217Z,980.43
2017-12-28T01:05:05.327Z,980.43
2017-12-28T01:06:07.242Z,980.47
2017-12-28T01:07:05.567Z,980.46
2017-12-28T01:08:05.813Z,980.41
2017-12-28T01:09:04.775Z,980.47
2017-12-28T01:10:05.364Z,980.44
2017-12-28T01:11:05.522Z,980.47
2017-12-28T01:12:04.756Z,980.45
2017-12-28T01:13:04.842Z,980.52
2017-12-28T01:14:05.242Z,980.54
2017-12-28T01:15:05.400Z,980.5
2017-12-28T01:16:05.179Z,980.53
2017-12-28T01:17:05.652Z,980.49
2017-12-28T01:18:05.510Z,980.49
2017-12-28T01:19:05.459Z,980.57
2017-12-28T01:20:06.869Z,980.55
2017-12-28T01:21:05.037Z,980.56
2017-12-28T01:22:05.167Z,980.57
2017-12-28T01:23:05.185Z,980.58
2017-12-28T01:24:07.555Z,980.6
2017-12-28T01:25:05.142Z,980.61
2017-12-28T01:26:05.509Z,980.62
2017-12-28T01:27:04.816Z,980.64
2017-12-28T01:28:05.268Z,980.62
2017-12-28T01:29:04.962Z,980.62
2017-12-28T01:30:05.187Z,980.6
2017-12-28T01:31:05.357Z,980.63
2017-12-28T01:32:07.284Z,980.64
2017-12-28T01:33:05.808Z,980.66
2017-12-28T01:34:05.518Z,980.67
2017-12-28T01:35:04.966Z,980.73
2017-12-28T01:36:06.570Z,980.76
2017-12-28T01:37:05.214Z,980.72
2017-12-28T01:38:05.361Z,980.73
2017-12-28T01:39:05.385Z,980.75
2017-12-28T01:40:07.752Z,980.68
2017-12-28T01:41:05.816Z,980.77
2017-12-28T01:42:05.339Z,980.74
2017-12-28T01:43:05.729Z,980.74
2017-12-28T01:44:06.066Z,980.78
2017-12-28T01:45:07.179Z,980.79
2017-12-28T01:46:07.309Z,980.79
2017-12-28T01:47:05.525Z,980.79
2017-12-28T01:48:07.374Z,980.74
2017-12-28T01:49:07.461Z,980.72
2017-12-28T01:50:05.494Z,980.7
2017-12-28T01:51:05.547Z,980.75
2017-12-28T01:52:05.910Z,980.76
2017-12-28T01:53:06.069Z,980.71
2017-12-28T01:54:06.060Z,980.76
2017-12-28T01:55:07.300Z,980.78
2017-12-28T01:56:05.492Z,980.75
2017-12-28T01:57:07.288Z,980.78
2017-12-28T01:58:05.537Z,980.77
2017-12-28T01:59:05.709Z,980.82
2017-12-28T02:00:05.935Z,980.78
2017-12-28T02:01:09.027Z,980.8
2017-12-28T02:02:07.334Z,980.82
2017-12-28T02:03:07.532Z,980.82
2017-12-28T02:04:05.786Z,980.8
2017-12-28T02:05:07.448Z,980.86
2017-12-28T02:06:05.948Z,980.82
2017-12-28T02:07:05.812Z,980.81
2017-12-28T02:08:05.434Z,980.78
2017-12-28T02:09:05.758Z,980.88
2017-12-28T02:10:07.614Z,980.84
2017-12-28T02:11:05.702Z,980.86
2017-12-28T02:12:05.493Z,980.87
2017-12-28T02:13:06.458Z,980.89
2017-12-28T02:14:07.299Z,980.9
2017-12-28T02:15:05.479Z,980.89
2017-12-28T02:16:05.652Z,980.92
2017-12-28T02:17:05.232Z,980.94
2017-12-28T02:18:05.109Z,980.97
2017-12-28T02:19:05.145Z,980.98
2017-12-28T02:20:05.231Z,981
2017-12-28T02:21:05.385Z,981
2017-12-28T02:22:05.128Z,981.05
2017-12-28T02:23:05.222Z,981.05
2017-12-28T02:24:05.106Z,981.07
2017-12-28T02:25:04.890Z,981.04
2017-12-28T02:26:05.469Z,981.01
2017-12-28T02:27:05.580Z,981.04
2017-12-28T02:28:04.774Z,981.07
2017-12-28T02:29:04.799Z,981.08
2017-12-28T02:30:04.829Z,981.04
2017-12-28T02:31:05.224Z,981.09
2017-12-28T02:32:05.457Z,981.09
2017-12-28T02:33:05.483Z,981.1
2017-12-28T02:34:04.674Z,981.09
2017-12-28T02:35:04.704Z,981.11
2017-12-28T02:36:04.820Z,981.13
2017-12-28T02:37:04.987Z,981.18
2017-12-28T02:38:05.545Z,981.12
2017-12-28T02:39:05.475Z,981.15
2017-12-28T02:40:05.608Z,981.2
2017-12-28T02:41:05.197Z,981.21
2017-12-28T02:43:05.260Z,981.26
2017-12-28T02:44:05.072Z,981.27
2017-12-28T02:45:04.811Z,981.24
2017-12-28T02:46:04.897Z,981.28
2017-12-28T02:47:05.618Z,981.32
2017-12-28T02:48:05.608Z,981.34
2017-12-28T02:49:05.489Z,981.33
2017-12-28T02:50:05.520Z,981.38
2017-12-28T02:51:05.164Z,981.38
2017-12-28T02:52:04.777Z,981.33
2017-12-28T02:53:05.563Z,981.33
2017-12-28T02:54:05.300Z,981.36
2017-12-28T02:55:05.051Z,981.36
2017-12-28T02:56:04.938Z,981.37
2017-12-28T02:57:05.508Z,981.42
2017-12-28T02:58:05.223Z,981.43
2017-12-28T02:59:05.138Z,981.43
2017-12-28T03:00:04.966Z,981.51
2017-12-28T03:01:05.595Z,981.5
2017-12-28T03:02:05.395Z,981.47
2017-12-28T03:03:05.040Z,981.46
2017-12-28T03:04:05.014Z,981.5
2017-12-28T03:05:04.762Z,981.46
2017-12-28T03:06:04.821Z,981.49
2017-12-28T03:07:04.852Z,981.5
2017-12-28T03:08:04.962Z,981.5
2017-12-28T03:09:05.492Z,981.54
2017-12-28T03:10:05.401Z,981.51
2017-12-28T03:11:05.244Z,981.56
2017-12-28T03:12:05.934Z,981.54
2017-12-28T03:13:05.473Z,981.6
2017-12-28T03:14:05.233Z,981.6
2017-12-28T03:15:06.166Z,981.69
2017-12-28T03:16:05.611Z,981.69
2017-12-28T03:17:05.749Z,981.74
2017-12-28T03:18:05.690Z,981.74
2017-12-28T03:19:05.362Z,981.76
2017-12-28T03:20:05.386Z,981.83
2017-12-28T03:21:06.164Z,981.82
2017-12-28T03:22:05.338Z,981.86
2017-12-28T03:23:05.528Z,981.87
2017-12-28T03:24:05.887Z,981.9
2017-12-28T03:25:05.839Z,981.89
2017-12-28T03:26:05.591Z,981.91
2017-12-28T03:27:05.546Z,981.92
2017-12-28T03:28:05.265Z,981.95
2017-12-28T03:29:05.189Z,982.01
2017-12-28T03:30:05.935Z,982.02
2017-12-28T03:31:05.532Z,982.01
2017-12-28T03:32:05.439Z,982.05
2017-12-28T03:33:05.656Z,982.04
2017-12-28T03:34:05.788Z,982.05
2017-12-28T03:35:05.964Z,982.04
2017-12-28T03:36:06.014Z,982.09
2017-12-28T03:37:05.673Z,982.11
2017-12-28T03:38:05.619Z,982.14
2017-12-28T03:39:05.353Z,982.15
2017-12-28T03:40:05.513Z,982.19
2017-12-28T03:41:05.367Z,982.21
2017-12-28T03:42:05.974Z,982.26
2017-12-28T03:43:05.628Z,982.26
2017-12-28T03:44:07.313Z,982.26
2017-12-28T03:45:05.574Z,982.24
2017-12-28T03:46:06.126Z,982.29
2017-12-28T03:47:06.185Z,982.29
2017-12-28T03:48:07.019Z,982.3
2017-12-28T03:49:05.972Z,982.34
2017-12-28T03:50:06.972Z,982.31
2017-12-28T03:51:07.144Z,982.35
2017-12-28T03:52:05.892Z,982.37
2017-12-28T03:53:05.684Z,982.41
2017-12-28T03:55:05.767Z,982.45
2017-12-28T03:56:06.862Z,982.46
2017-12-28T03:57:07.463Z,982.5
2017-12-28T03:58:05.443Z,982.53
2017-12-28T03:59:06.041Z,982.58
2017-12-28T04:00:06.172Z,982.57
2017-12-28T04:01:05.501Z,982.6
2017-12-28T04:02:05.482Z,982.61
2017-12-28T04:03:05.781Z,982.62
2017-12-28T04:04:05.899Z,982.67
2017-12-28T04:05:05.756Z,982.71
2017-12-28T04:06:05.933Z,982.67
2017-12-28T04:07:06.056Z,982.7
2017-12-28T04:08:06.200Z,982.76
2017-12-28T04:09:07.435Z,982.79
2017-12-28T04:10:07.588Z,982.84
2017-12-28T04:11:05.726Z,982.8
2017-12-28T04:12:05.609Z,982.86
2017-12-28T04:13:04.882Z,982.88
2017-12-28T04:14:05.183Z,982.92
2017-12-28T04:15:05.303Z,982.92
2017-12-28T04:16:05.138Z,982.91
2017-12-28T04:17:05.112Z,982.98
2017-12-28T04:18:05.210Z,982.97
2017-12-28T04:19:05.363Z,982.98
2017-12-28T04:20:05.330Z,983
2017-12-28T04:21:04.907Z,982.98
2017-12-28T04:22:05.075Z,983.03
2017-12-28T04:23:05.602Z,983.02
2017-12-28T04:24:05.608Z,983
2017-12-28T04:25:05.102Z,983.04
2017-12-28T04:26:05.447Z,983.03
2017-12-28T04:27:04.881Z,983.05
2017-12-28T04:28:04.911Z,983.04
2017-12-28T04:29:05.102Z,983.06
2017-12-28T04:30:05.474Z,983.09
2017-12-28T04:31:04.921Z,983.13
2017-12-28T04:32:05.205Z,983.14
2017-12-28T04:33:05.593Z,983.17
2017-12-28T04:34:04.730Z,983.15
2017-12-28T04:35:04.726Z,983.16
2017-12-28T04:36:04.847Z,983.19
2017-12-28T04:37:04.979Z,983.22
2017-12-28T04:38:04.860Z,983.2
2017-12-28T04:39:05.084Z,983.22
2017-12-28T04:40:05.326Z,983.19
2017-12-28T04:41:04.973Z,983.21
2017-12-28T04:42:05.295Z,983.25
2017-12-28T04:43:05.298Z,983.27
2017-12-28T04:44:05.296Z,983.25
2017-12-28T04:45:06.013Z,983.29
2017-12-28T04:46:05.254Z,983.31
2017-12-28T04:47:06.176Z,983.33
2017-12-28T04:48:05.620Z,983.35
2017-12-28T04:49:05.886Z,983.42
2017-12-28T04:50:06.146Z,983.42
2017-12-28T04:51:05.397Z,983.48
2017-12-28T04:52:05.384Z,983.49
2017-12-28T04:53:05.349Z,983.56
2017-12-28T04:54:05.463Z,983.54
2017-12-28T04:55:05.653Z,983.6
2017-12-28T04:56:05.792Z,983.58
2017-12-28T04:57:06.220Z,983.61
2017-12-28T04:58:06.139Z,983.63
2017-12-28T04:59:05.726Z,983.65
2017-12-28T05:00:06.022Z,983.67
2017-12-28T05:01:05.613Z,983.74
2017-12-28T05:02:05.951Z,983.75
2017-12-28T05:03:05.304Z,983.71
2017-12-28T05:04:05.701Z,983.78
2017-12-28T05:05:05.900Z,983.75
2017-12-28T05:06:05.427Z,983.81
2017-12-28T05:07:05.704Z,983.8
2017-12-28T05:08:06.067Z,983.83
2017-12-28T05:09:06.243Z,983.89
2017-12-28T05:10:05.332Z,983.82
2017-12-28T05:11:06.219Z,983.92
2017-12-28T05:12:05.457Z,983.91
2017-12-28T05:13:07.505Z,983.91
2017-12-28T05:14:05.771Z,983.96
2017-12-28T05:15:05.955Z,984.01
2017-12-28T05:16:05.950Z,984.06
2017-12-28T05:17:07.444Z,984.08
2017-12-28T05:18:05.649Z,984.12
2017-12-28T05:19:07.406Z,984.1
2017-12-28T05:20:05.680Z,984.17
2017-12-28T05:21:05.782Z,984.21
2017-12-28T05:22:06.018Z,984.19
2017-12-28T05:23:06.036Z,984.24
2017-12-28T05:24:06.211Z,984.24
2017-12-28T05:25:06.339Z,984.32
2017-12-28T05:26:06.429Z,984.32
2017-12-28T05:27:05.756Z,984.35
2017-12-28T05:28:05.718Z,984.35
2017-12-28T05:29:05.827Z,984.37
2017-12-28T05:30:05.815Z,984.38
2017-12-28T05:31:06.008Z,984.41
2017-12-28T05:32:06.312Z,984.42
2017-12-28T05:33:06.463Z,984.46
2017-12-28T05:34:05.544Z,984.45
2017-12-28T05:35:05.543Z,984.48
2017-12-28T05:36:05.859Z,984.5
2017-12-28T05:37:06.007Z,984.56
2017-12-28T05:38:06.106Z,984.59
2017-12-28T05:39:06.216Z,984.67
2017-12-28T05:40:05.438Z,984.67
2017-12-28T05:41:05.461Z,984.65
2017-12-28T05:42:06.532Z,984.69
2017-12-28T05:43:05.795Z,984.7
2017-12-28T05:44:06.007Z,984.73
2017-12-28T05:45:06.184Z,984.75
2017-12-28T05:46:06.382Z,984.78
2017-12-28T05:47:05.689Z,984.8
2017-12-28T05:48:05.769Z,984.78
2017-12-28T05:49:05.931Z,984.79
2017-12-28T05:50:06.064Z,984.83
2017-12-28T05:51:06.320Z,984.83
2017-12-28T05:52:05.479Z,984.81
2017-12-28T05:53:05.536Z,984.81
2017-12-28T05:54:05.808Z,984.83
2017-12-28T05:55:05.842Z,984.85
2017-12-28T05:56:06.095Z,984.8
2017-12-28T05:57:06.159Z,984.82
2017-12-28T05:58:06.427Z,984.87
2017-12-28T05:59:05.636Z,984.89
2017-12-28T06:00:05.701Z,984.97
2017-12-28T06:01:05.866Z,985.02
2017-12-28T06:02:05.732Z,985.02
2017-12-28T06:03:05.733Z,985.06
2017-12-28T06:04:05.739Z,985.04
2017-12-28T06:05:05.730Z,985.05
2017-12-28T06:06:05.565Z,985.05
2017-12-28T06:07:05.489Z,985.09
2017-12-28T06:08:05.794Z,985.07
2017-12-28T06:09:05.973Z,985.1
2017-12-28T06:10:06.190Z,985.06
2017-12-28T06:11:06.332Z,985.1
2017-12-28T06:12:06.296Z,985.14
2017-12-28T06:13:06.184Z,985.14
2017-12-28T06:14:05.297Z,985.19
2017-12-28T06:15:05.434Z,985.21
2017-12-28T06:16:05.555Z,985.22
2017-12-28T06:17:05.660Z,985.23
2017-12-28T06:18:05.727Z,985.25
2017-12-28T06:19:05.669Z,985.3
2017-12-28T06:20:05.914Z,985.31
2017-12-28T06:21:06.255Z,985.34
2017-12-28T06:22:05.231Z,985.33
2017-12-28T06:23:05.266Z,985.4
2017-12-28T06:24:05.473Z,985.39
2017-12-28T06:25:05.440Z,985.38
2017-12-28T06:26:05.531Z,985.4
2017-12-28T06:27:05.427Z,985.4
2017-12-28T06:28:05.554Z,985.44
2017-12-28T06:29:05.744Z,985.45
2017-12-28T06:30:05.957Z,985.45
2017-12-28T06:31:06.013Z,985.47
2017-12-28T06:32:06.038Z,985.5
2017-12-28T06:33:05.895Z,985.51
2017-12-28T06:34:05.541Z,985.54
2017-12-28T06:37:06.302Z,985.59
2017-12-28T06:38:06.271Z,985.61
2017-12-28T06:39:05.980Z,985.6
2017-12-28T06:40:05.779Z,985.62
2017-12-28T06:41:05.284Z,985.7
2017-12-28T06:42:05.232Z,985.67
2017-12-28T06:43:05.261Z,985.75
2017-12-28T06:44:05.441Z,985.71
2017-12-28T06:45:05.572Z,985.78
2017-12-28T06:46:05.583Z,985.8
2017-12-28T06:48:09.669Z,985.8
2017-12-28T06:49:05.668Z,985.82
2017-12-28T06:50:05.910Z,985.87
2017-12-28T06:51:05.738Z,985.85
2017-12-28T06:52:05.670Z,985.87
2017-12-28T06:53:05.550Z,985.91
2017-12-28T06:54:05.541Z,985.98
2017-12-28T06:55:05.393Z,985.98
2017-12-28T06:56:05.409Z,985.99
2017-12-28T06:57:05.444Z,986.01
2017-12-28T06:58:05.446Z,986.03
2017-12-28T06:59:05.425Z,986.03
2017-12-28T07:00:05.474Z,986.01
2017-12-28T07:01:06.330Z,986.06
2017-12-28T07:02:06.118Z,986.08
2017-12-28T07:03:06.224Z,986.1
2017-12-28T07:04:05.412Z,986.12
2017-12-28T07:05:05.488Z,986.13
2017-12-28T07:06:05.656Z,986.2
2017-12-28T07:07:05.733Z,986.17
2017-12-28T07:08:05.628Z,986.22
2017-12-28T07:09:05.830Z,986.22
2017-12-28T07:10:05.697Z,986.28
2017-12-28T07:11:05.638Z,986.28
2017-12-28T07:12:05.890Z,986.33
2017-12-28T07:13:05.962Z,986.37
2017-12-28T07:14:05.513Z,986.39
2017-12-28T07:15:06.246Z,986.39
2017-12-28T07:16:06.231Z,986.43
2017-12-28T07:17:05.960Z,986.47
2017-12-28T07:18:05.559Z,986.49
2017-12-28T07:19:05.708Z,986.55
2017-12-28T07:20:06.030Z,986.53
2017-12-28T07:21:06.657Z,986.59
2017-12-28T07:22:05.997Z,986.58
2017-12-28T07:23:06.249Z,986.62
2017-12-28T07:24:05.820Z,986.58
2017-12-28T07:25:05.673Z,986.65
2017-12-28T07:26:05.844Z,986.64
2017-12-28T07:27:05.794Z,986.66
2017-12-28T07:28:06.064Z,986.65
2017-12-28T07:29:05.751Z,986.68
2017-12-28T07:30:06.195Z,986.71
2017-12-28T07:31:06.271Z,986.68
2017-12-28T07:32:06.398Z,986.69
2017-12-28T07:33:05.979Z,986.68
2017-12-28T07:34:05.742Z,986.71
2017-12-28T07:35:06.484Z,986.73
2017-12-28T07:36:05.931Z,986.76
2017-12-28T07:37:06.399Z,986.75
2017-12-28T07:38:06.088Z,986.81
2017-12-28T07:39:06.278Z,986.84
2017-12-28T07:40:06.326Z,986.85
2017-12-28T07:41:05.651Z,986.89
2017-12-28T07:42:05.951Z,986.9
2017-12-28T07:43:05.923Z,986.92
2017-12-28T07:44:06.154Z,986.97
2017-12-28T07:45:05.267Z,986.98
2017-12-28T07:46:05.141Z,986.95
2017-12-28T07:47:05.225Z,986.96
2017-12-28T07:48:05.185Z,987.03
2017-12-28T07:49:05.321Z,987.06
2017-12-28T07:50:05.434Z,987.08
2017-12-28T07:51:05.559Z,987.09
2017-12-28T07:52:05.466Z,987.11
2017-12-28T07:53:05.607Z,987.17
2017-12-28T07:54:05.658Z,987.15
2017-12-28T07:55:05.768Z,987.19
2017-12-28T07:56:05.012Z,987.21
2017-12-28T07:57:05.151Z,987.23
2017-12-28T07:58:05.388Z,987.24
2017-12-28T07:59:05.411Z,987.25
2017-12-28T08:00:05.758Z,987.3
2017-12-28T08:01:05.737Z,987.25
2017-12-28T08:02:04.773Z,987.28
2017-12-28T08:03:05.954Z,987.3
2017-12-28T08:04:05.533Z,987.32
2017-12-28T08:05:05.720Z,987.39
2017-12-28T08:06:05.601Z,987.41
2017-12-28T08:07:05.553Z,987.36
2017-12-28T08:08:04.759Z,987.44
2017-12-28T08:09:05.730Z,987.43
2017-12-28T08:10:04.859Z,987.43
2017-12-28T08:11:04.848Z,987.48
2017-12-28T08:12:04.828Z,987.46
2017-12-28T08:13:05.670Z,987.5
2017-12-28T08:14:05.560Z,987.51
2017-12-28T08:15:05.454Z,987.56
2017-12-28T08:16:05.445Z,987.57
2017-12-28T08:17:06.560Z,987.56
2017-12-28T08:18:06.201Z,987.61
2017-12-28T08:19:06.277Z,987.62
2017-12-28T08:20:06.087Z,987.63
2017-12-28T08:21:05.925Z,987.69
2017-12-28T08:22:05.580Z,987.7
2017-12-28T08:23:05.554Z,987.7
2017-12-28T08:24:05.582Z,987.67
2017-12-28T08:25:05.761Z,987.68
2017-12-28T08:26:06.052Z,987.69
2017-12-28T08:27:06.060Z,987.69
2017-12-28T08:28:06.195Z,987.76
2017-12-28T08:29:06.232Z,987.75
2017-12-28T08:30:06.079Z,987.77
2017-12-28T08:31:06.174Z,987.82
2017-12-28T08:32:06.268Z,987.81
2017-12-28T08:33:06.387Z,987.85
2017-12-28T08:34:06.343Z,987.89
2017-12-28T08:35:06.238Z,987.91
2017-12-28T08:36:05.470Z,987.95
2017-12-28T08:37:06.409Z,987.95
2017-12-28T08:38:05.537Z,987.97
2017-12-28T08:39:06.405Z,988
2017-12-28T08:40:05.860Z,988
2017-12-28T08:41:05.551Z,988.02
2017-12-28T08:42:05.640Z,988.09
2017-12-28T08:43:06.160Z,988.09
2017-12-28T08:44:06.234Z,988.13
2017-12-28T08:45:06.156Z,988.2
2017-12-28T08:46:05.841Z,988.17
2017-12-28T08:47:06.041Z,988.15
2017-12-28T08:48:05.715Z,988.22
2017-12-28T08:49:05.884Z,988.26
2017-12-28T08:50:05.995Z,988.24
2017-12-28T08:51:05.892Z,988.33
2017-12-28T08:52:06.059Z,988.31
2017-12-28T08:53:05.906Z,988.32
2017-12-28T08:54:06.110Z,988.35
2017-12-28T08:55:06.079Z,988.32
2017-12-28T08:56:05.218Z,988.34
2017-12-28T08:57:06.055Z,988.34
2017-12-28T08:58:05.155Z,988.39
2017-12-28T08:59:05.121Z,988.4
2017-12-28T09:00:06.099Z,988.42
2017-12-28T09:01:05.256Z,988.46
2017-12-28T09:02:05.324Z,988.43
2017-12-28T09:03:05.473Z,988.5
2017-12-28T09:04:05.864Z,988.53
2017-12-28T09:05:06.008Z,988.51
2017-12-28T09:06:06.126Z,988.57
2017-12-28T09:07:05.378Z,988.59
2017-12-28T09:08:05.395Z,988.62
2017-12-28T09:09:05.811Z,988.65
2017-12-28T09:10:05.864Z,988.65
2017-12-28T09:11:06.224Z,988.72
2017-12-28T09:12:05.192Z,988.75
2017-12-28T09:13:06.233Z,988.81
2017-12-28T09:14:05.322Z,988.79
2017-12-28T09:15:05.290Z,988.83
2017-12-28T09:16:06.522Z,988.87
2017-12-28T09:17:04.788Z,988.82
2017-12-28T09:18:05.670Z,988.88
2017-12-28T09:19:04.791Z,988.87
2017-12-28T09:20:05.556Z,988.9
2017-12-28T09:21:05.483Z,988.94
2017-12-28T09:22:05.517Z,988.95
2017-12-28T09:23:05.623Z,988.9
2017-12-28T09:24:04.890Z,988.91
2017-12-28T09:25:04.908Z,988.97
2017-12-28T09:26:05.034Z,988.93
2017-12-28T09:27:05.449Z,988.95
2017-12-28T09:28:05.269Z,988.97
2017-12-28T09:29:05.182Z,988.97
2017-12-28T09:30:05.067Z,989.04
2017-12-28T09:31:05.044Z,989.09
2017-12-28T09:32:04.993Z,989.11
2017-12-28T09:33:05.086Z,989.18
2017-12-28T09:34:05.106Z,989.2
2017-12-28T09:35:05.239Z,989.22
2017-12-28T09:36:05.435Z,989.22
2017-12-28T09:37:05.612Z,989.19
2017-12-28T09:38:05.679Z,989.21
2017-12-28T09:39:05.727Z,989.3
2017-12-28T09:40:05.523Z,989.29
2017-12-28T09:41:05.507Z,989.31
2017-12-28T09:42:05.851Z,989.28
2017-12-28T09:43:05.353Z,989.29
2017-12-28T09:44:05.558Z,989.28
2017-12-28T09:45:05.301Z,989.31
2017-12-28T09:46:05.272Z,989.31
2017-12-28T09:47:05.483Z,989.27
2017-12-28T09:48:06.283Z,989.33
2017-12-28T09:49:06.406Z,989.38
2017-12-28T09:50:06.489Z,989.36
2017-12-28T09:51:05.817Z,989.38
2017-12-28T09:52:06.089Z,989.37
2017-12-28T09:53:06.315Z,989.34
2017-12-28T09:54:05.830Z,989.35
2017-12-28T09:55:00.473Z,989.35
2017-12-28T09:56:00.837Z,989.38
2017-12-28T09:57:00.995Z,989.37
2017-12-28T09:58:01.115Z,989.38
2017-12-28T09:59:01.303Z,989.41
2017-12-28T10:00:01.372Z,989.38
2017-12-28T10:01:00.763Z,989.39
2017-12-28T10:02:00.784Z,989.43
2017-12-28T10:03:02.137Z,989.42
2017-12-28T10:04:01.009Z,989.43
2017-12-28T10:05:01.739Z,989.47
2017-12-28T10:06:01.777Z,989.48
2017-12-28T10:07:00.834Z,989.47
2017-12-28T10:08:01.048Z,989.46
2017-12-28T10:09:01.209Z,989.44
2017-12-28T10:10:01.229Z,989.44
2017-12-28T10:11:02.718Z,989.46
2017-12-28T10:12:01.180Z,989.49
2017-12-28T10:13:00.596Z,989.53
2017-12-28T10:14:01.443Z,989.54
2017-12-28T10:15:01.353Z,989.55
2017-12-28T10:16:02.309Z,989.56
2017-12-28T10:17:01.240Z,989.61
2017-12-28T10:18:01.362Z,989.59
2017-12-28T10:19:01.331Z,989.58
2017-12-28T10:20:00.739Z,989.64
2017-12-28T10:21:00.906Z,989.63
2017-12-28T10:22:01.054Z,989.61
2017-12-28T10:23:01.303Z,989.6
2017-12-28T10:24:00.642Z,989.62
2017-12-28T10:25:00.740Z,989.71
2017-12-28T10:25:59.798Z,989.62
2017-12-28T10:26:59.891Z,989.69
2017-12-28T10:27:59.905Z,989.68
2017-12-28T10:29:00.057Z,989.68
2017-12-28T10:30:00.317Z,989.7
2017-12-28T10:31:00.306Z,989.69
2017-12-28T10:32:00.276Z,989.69
2017-12-28T10:33:00.340Z,989.69
2017-12-28T10:34:00.652Z,989.64
2017-12-28T10:34:59.826Z,989.66
2017-12-28T10:35:59.956Z,989.7
2017-12-28T10:37:00.170Z,989.69
2017-12-28T10:38:00.140Z,989.68
2017-12-28T10:39:00.401Z,989.63
2017-12-28T10:40:00.511Z,989.63
2017-12-28T10:40:59.770Z,989.67
2017-12-28T10:41:59.770Z,989.67
2017-12-28T10:43:00.026Z,989.67
2017-12-28T10:44:00.028Z,989.7
2017-12-28T10:45:00.054Z,989.74
2017-12-28T10:46:00.378Z,989.75
2017-12-28T10:46:59.860Z,989.74
2017-12-28T10:48:00.013Z,989.77
2017-12-28T10:48:59.994Z,989.78
2017-12-28T10:50:00.349Z,989.78
2017-12-28T10:51:00.608Z,989.81
2017-12-28T10:52:00.904Z,989.83
2017-12-28T10:52:59.874Z,989.87
2017-12-28T10:54:00.307Z,989.84
2017-12-28T10:55:00.622Z,989.9
2017-12-28T10:56:01.733Z,989.91
2017-12-28T10:57:01.338Z,989.85
2017-12-28T10:58:01.396Z,989.86
2017-12-28T10:59:01.370Z,989.91
2017-12-28T11:00:01.841Z,989.9
2017-12-28T11:01:01.096Z,989.9
2017-12-28T11:02:01.311Z,989.91
2017-12-28T11:03:01.404Z,989.92
2017-12-28T11:04:00.563Z,989.93
2017-12-28T11:05:00.544Z,989.91
2017-12-28T11:06:00.866Z,989.9
2017-12-28T11:07:00.997Z,989.91
2017-12-28T11:08:00.993Z,989.9
2017-12-28T11:09:00.975Z,989.93
2017-12-28T11:10:01.077Z,989.91
2017-12-28T11:11:01.941Z,989.97
2017-12-28T11:12:01.138Z,990.02
2017-12-28T11:13:01.473Z,990.03
2017-12-28T11:14:00.724Z,990.04
2017-12-28T11:15:00.818Z,990.06
2017-12-28T11:16:00.996Z,990.12
2017-12-28T11:17:01.046Z,990.11
2017-12-28T11:18:01.369Z,990.16
2017-12-28T11:19:01.462Z,990.15
2017-12-28T11:20:00.437Z,990.17
2017-12-28T11:21:01.443Z,990.22
2017-12-28T11:22:01.474Z,990.19
2017-12-28T11:23:00.775Z,990.14
2017-12-28T11:24:00.574Z,990.21
2017-12-28T11:25:01.371Z,990.21
2017-12-28T11:26:00.793Z,990.19
2017-12-28T11:26:59.931Z,990.19
2017-12-28T11:28:00.248Z,990.21
2017-12-28T11:29:00.267Z,990.18
2017-12-28T11:30:00.260Z,990.22
2017-12-28T11:31:00.464Z,990.22
2017-12-28T11:32:00.523Z,990.24
2017-12-28T11:32:59.869Z,990.22
2017-12-28T11:34:00.061Z,990.26
2017-12-28T11:35:00.386Z,990.23
2017-12-28T11:35:59.829Z,990.24
2017-12-28T11:36:59.873Z,990.26
2017-12-28T11:37:59.984Z,990.27
2017-12-28T11:39:00.243Z,990.25
2017-12-28T11:39:59.771Z,990.23
2017-12-28T11:41:00.277Z,990.24
2017-12-28T11:42:00.614Z,990.21
2017-12-28T11:43:00.138Z,990.29
2017-12-28T11:44:00.607Z,990.25
2017-12-28T11:44:59.856Z,990.28
2017-12-28T11:46:00.213Z,990.28
2017-12-28T11:46:59.776Z,990.26
2017-12-28T11:48:00.559Z,990.33
2017-12-28T11:48:59.973Z,990.35
2017-12-28T11:50:00.327Z,990.34
2017-12-28T11:50:59.847Z,990.35
2017-12-28T11:52:00.158Z,990.38
2017-12-28T11:53:00.399Z,990.31
2017-12-28T11:54:00.496Z,990.34
2017-12-28T11:54:59.835Z,990.35
2017-12-28T11:56:00.237Z,990.37
2017-12-28T11:56:59.777Z,990.38
2017-12-28T11:58:00.217Z,990.45
2017-12-28T11:59:00.722Z,990.45
2017-12-28T12:00:00.000Z,990.46
2017-12-28T12:01:00.627Z,990.47
2017-12-28T12:02:00.289Z,990.48
2017-12-28T12:03:00.718Z,990.5
2017-12-28T12:04:00.184Z,990.52
2017-12-28T12:05:00.486Z,990.49
2017-12-28T12:05:59.820Z,990.53
2017-12-28T12:07:00.232Z,990.54
2017-12-28T12:08:00.573Z,990.65
2017-12-28T12:09:00.063Z,990.65
2017-12-28T12:10:00.383Z,990.63
2017-12-28T12:10:59.755Z,990.67
2017-12-28T12:12:00.257Z,990.63
2017-12-28T12:12:59.778Z,990.61
2017-12-28T12:13:59.963Z,990.65
2017-12-28T12:15:00.380Z,990.69
2017-12-28T12:16:00.225Z,990.69
2017-12-28T12:17:00.453Z,990.66
2017-12-28T12:17:59.904Z,990.69
2017-12-28T12:19:00.262Z,990.71
2017-12-28T12:20:00.825Z,990.69
2017-12-28T12:21:00.575Z,990.72
2017-12-28T12:21:59.929Z,990.7
2017-12-28T12:23:00.527Z,990.72
2017-12-28T12:23:59.931Z,990.72
2017-12-28T12:25:00.657Z,990.73
2017-12-28T12:26:00.228Z,990.81
2017-12-28T12:27:00.774Z,990.81
2017-12-28T12:28:00.339Z,990.81
2017-12-28T12:28:59.783Z,990.83
2017-12-28T12:30:00.177Z,990.79
2017-12-28T12:31:00.903Z,990.8
2017-12-28T12:32:00.328Z,990.86
2017-12-28T12:33:00.995Z,990.85
2017-12-28T12:34:00.318Z,990.83
2017-12-28T12:35:00.620Z,990.85
2017-12-28T12:36:00.184Z,990.85